createdAt,value
2023-12-13T00:01:33.274Z,4.43
2023-12-13T00:04:01.314Z,4.10
2023-12-13T00:08:58.374Z,4.32
2023-12-13T00:13:55.931Z,13.18
2023-12-13T00:16:24.568Z,5.25
2023-12-13T00:18:54.171Z,7.53
2023-12-13T00:21:21.936Z,8.38
2023-12-13T00:23:49.704Z,8.75
2023-12-13T00:31:13.133Z,4.75
2023-12-13T00:33:41.109Z,4.90
2023-12-13T00:36:10.904Z,19.48
2023-12-13T00:38:38.676Z,7.28
2023-12-13T00:41:06.796Z,4.72
2023-12-13T00:43:34.638Z,7.60
2023-12-13T00:48:30.275Z,11.23
2023-12-13T00:50:58.386Z,4.03
2023-12-13T00:53:27.581Z,7.20
2023-12-13T00:55:55.475Z,8.02
2023-12-13T01:02:40.798Z,8.05
2023-12-13T01:05:09.136Z,4.60
2023-12-13T01:07:37.163Z,6.55
2023-12-13T01:10:05.679Z,9.82
2023-12-13T01:12:33.309Z,4.55
2023-12-13T01:15:01.087Z,6.72
2023-12-13T01:17:28.745Z,5.45
2023-12-13T01:19:59.635Z,5.78
2023-12-13T01:22:30.474Z,9.48
2023-12-13T01:24:58.237Z,5.70
2023-12-13T01:27:25.811Z,5.35
2023-12-13T01:29:53.295Z,8.05
2023-12-13T01:32:21.264Z,7.90
2023-12-13T01:34:49.149Z,5.65
2023-12-13T01:39:45.745Z,4.72
2023-12-13T01:42:14.098Z,4.38
2023-12-13T01:44:42.445Z,4.50
2023-12-13T01:47:11.055Z,8.25
2023-12-13T01:49:39.062Z,10.00
2023-12-13T01:57:06.328Z,11.50
2023-12-13T01:59:35.202Z,5.55
2023-12-13T02:02:03.215Z,7.60
2023-12-13T02:04:31.174Z,6.97
2023-12-13T02:06:59.055Z,5.72
2023-12-13T02:09:26.994Z,10.43
2023-12-13T02:14:26.264Z,7.30
2023-12-13T02:16:54.907Z,20.98
2023-12-13T02:19:22.664Z,9.90
2023-12-13T02:21:50.156Z,6.55
2023-12-13T02:24:19.956Z,12.15
2023-12-13T02:26:47.525Z,9.45
2023-12-13T02:29:16.084Z,8.77
2023-12-13T02:31:45.582Z,6.68
2023-12-13T02:34:13.171Z,11.23
2023-12-13T02:36:40.734Z,6.32
2023-12-13T02:39:08.346Z,9.43
2023-12-13T02:44:04.713Z,6.18
2023-12-13T02:46:32.629Z,10.35
2023-12-13T02:51:28.158Z,6.70
2023-12-13T02:53:55.595Z,9.60
2023-12-13T02:56:23.048Z,7.63
2023-12-13T02:58:50.488Z,10.77
2023-12-13T03:01:19.388Z,8.82
2023-12-13T03:03:46.914Z,9.95
2023-12-13T03:06:14.319Z,8.57
2023-12-13T03:08:41.751Z,7.68
2023-12-13T03:11:11.200Z,10.50
2023-12-13T03:13:38.685Z,12.88
2023-12-13T03:16:07.246Z,8.10
2023-12-13T03:18:36.691Z,9.10
2023-12-13T03:21:04.388Z,12.60
2023-12-13T03:23:31.903Z,7.65
2023-12-13T03:25:59.465Z,10.30
2023-12-13T03:28:26.928Z,20.63
2023-12-13T03:30:54.526Z,11.23
2023-12-13T03:33:22.041Z,7.95
2023-12-13T03:35:50.948Z,12.10
2023-12-13T03:38:18.694Z,7.78
2023-12-13T03:40:46.181Z,14.63
2023-12-13T03:43:13.592Z,19.73
2023-12-13T03:45:41.001Z,6.45
2023-12-13T03:48:08.572Z,14.45
2023-12-13T03:50:35.141Z,18.98
2023-12-13T03:53:03.940Z,18.60
2023-12-13T03:55:31.618Z,15.05
2023-12-13T03:58:02.128Z,17.77
2023-12-13T04:00:29.548Z,13.40
2023-12-13T04:02:56.973Z,10.50
2023-12-13T04:05:24.502Z,16.42
2023-12-13T04:07:51.983Z,21.92
2023-12-13T04:10:20.911Z,18.45
2023-12-13T04:12:48.411Z,11.75
2023-12-13T04:15:15.851Z,13.63
2023-12-13T04:17:43.288Z,11.55
2023-12-13T04:20:11.464Z,12.25
2023-12-13T04:22:39.164Z,13.27
2023-12-13T04:25:06.939Z,16.75
2023-12-13T04:27:36.004Z,15.45
2023-12-13T04:30:03.723Z,19.15
2023-12-13T04:32:31.262Z,10.70
2023-12-13T04:34:59.083Z,15.32
2023-12-13T04:37:26.689Z,17.05
2023-12-13T04:39:54.100Z,12.38
2023-12-13T04:42:21.524Z,10.45
2023-12-13T04:44:50.636Z,10.20
2023-12-13T04:47:18.936Z,12.90
2023-12-13T04:49:46.451Z,23.60
2023-12-13T04:52:13.927Z,15.80
2023-12-13T04:54:41.371Z,9.73
2023-12-13T04:57:09.151Z,18.65
2023-12-13T04:59:36.932Z,13.43
2023-12-13T05:02:06.043Z,20.63
2023-12-13T05:04:33.592Z,19.33
2023-12-13T05:07:01.281Z,26.25
2023-12-13T05:09:28.697Z,14.60
2023-12-13T05:11:56.095Z,17.90
2023-12-13T05:14:23.652Z,19.27
2023-12-13T05:16:51.089Z,12.20
2023-12-13T05:19:20.008Z,18.35
2023-12-13T05:21:47.482Z,18.25
2023-12-13T05:24:14.901Z,15.35
2023-12-13T05:26:42.336Z,19.20
2023-12-13T05:29:09.793Z,22.08
2023-12-13T05:31:37.218Z,12.15
2023-12-13T05:34:04.739Z,15.07
2023-12-13T05:36:33.534Z,24.80
2023-12-13T05:39:00.980Z,16.38
2023-12-13T05:41:28.413Z,19.08
2023-12-13T05:43:56.045Z,14.30
2023-12-13T05:46:23.560Z,13.32
2023-12-13T05:48:51.045Z,18.08
2023-12-13T05:51:18.537Z,18.98
2023-12-13T05:53:47.334Z,12.05
2023-12-13T05:56:14.699Z,23.20
2023-12-13T05:58:42.180Z,12.20
2023-12-13T06:01:09.697Z,11.88
2023-12-13T06:03:37.139Z,24.55
2023-12-13T06:06:05.811Z,30.48
2023-12-13T06:08:33.356Z,17.33
2023-12-13T06:11:02.223Z,27.38
2023-12-13T06:13:29.721Z,23.40
2023-12-13T06:15:57.287Z,20.17
2023-12-13T06:18:25.170Z,11.32
2023-12-13T06:23:20.488Z,12.65
2023-12-13T06:25:47.946Z,16.75
2023-12-13T06:28:16.812Z,13.52
2023-12-13T06:30:44.386Z,21.25
2023-12-13T06:33:11.892Z,20.95
2023-12-13T06:35:39.319Z,26.08
2023-12-13T06:38:06.751Z,16.95
2023-12-13T06:40:34.221Z,14.18
2023-12-13T06:43:01.724Z,17.65
2023-12-13T06:45:30.510Z,20.05
2023-12-13T06:47:58.018Z,16.05
2023-12-13T06:50:26.139Z,19.02
2023-12-13T06:52:53.603Z,16.88
2023-12-13T06:55:22.549Z,24.13
2023-12-13T06:57:50.056Z,22.30
2023-12-13T07:00:20.756Z,25.95
2023-12-13T07:02:50.531Z,22.80
2023-12-13T07:05:18.508Z,18.00
2023-12-13T07:10:15.651Z,20.00
2023-12-13T07:12:43.123Z,14.30
2023-12-13T07:15:11.991Z,13.73
2023-12-13T07:17:39.916Z,24.83
2023-12-13T07:22:36.815Z,18.15
2023-12-13T07:25:07.687Z,24.25
2023-12-13T07:27:35.968Z,32.28
2023-12-13T07:30:04.872Z,28.17
2023-12-13T07:32:32.894Z,19.75
2023-12-13T07:35:00.633Z,19.20
2023-12-13T07:37:28.128Z,22.75
2023-12-13T07:39:57.021Z,33.22
2023-12-13T07:42:24.442Z,29.67
2023-12-13T07:44:51.843Z,24.80
2023-12-13T07:47:19.343Z,23.42
2023-12-13T07:49:46.882Z,22.27
2023-12-13T07:52:14.368Z,15.95
2023-12-13T07:54:41.927Z,32.97
2023-12-13T07:57:10.728Z,37.50
2023-12-13T07:59:38.185Z,14.75
2023-12-13T08:02:06.316Z,26.35
2023-12-13T08:04:34.288Z,26.92
2023-12-13T08:09:28.988Z,25.33
2023-12-13T08:11:56.468Z,31.35
2023-12-13T08:14:31.072Z,27.08
2023-12-13T08:17:00.383Z,27.55
2023-12-13T08:19:28.744Z,25.30
2023-12-13T08:21:56.164Z,28.38
2023-12-13T08:24:23.561Z,25.67
2023-12-13T08:26:50.973Z,37.00
2023-12-13T08:29:18.357Z,32.50
2023-12-13T08:31:47.221Z,23.17
2023-12-13T08:34:14.856Z,29.63
2023-12-13T08:36:42.246Z,27.00
2023-12-13T08:39:10.884Z,25.20
2023-12-13T08:41:38.399Z,18.45
2023-12-13T08:44:05.992Z,16.65
2023-12-13T08:46:33.432Z,23.98
2023-12-13T08:49:02.223Z,21.40
2023-12-13T08:51:29.657Z,19.30
2023-12-13T08:53:57.396Z,21.75
2023-12-13T08:56:24.839Z,14.38
2023-12-13T08:58:52.356Z,22.52
2023-12-13T09:01:24.146Z,24.15
2023-12-13T09:03:53.730Z,15.20
2023-12-13T09:06:22.976Z,17.42
2023-12-13T09:08:50.576Z,21.27
2023-12-13T09:11:18.002Z,23.02
2023-12-13T09:13:45.412Z,18.65
2023-12-13T09:16:13.504Z,15.40
2023-12-13T09:18:44.668Z,19.52
2023-12-13T09:21:12.126Z,23.23
2023-12-13T09:23:42.550Z,26.27
2023-12-13T09:26:14.670Z,21.42
2023-12-13T09:28:42.188Z,15.95
2023-12-13T09:31:09.834Z,14.82
2023-12-13T09:33:36.419Z,17.73
2023-12-13T09:36:04.479Z,14.77
2023-12-13T09:38:32.406Z,10.23
2023-12-13T09:41:01.384Z,24.98
2023-12-13T09:43:28.938Z,22.08
2023-12-13T09:45:56.608Z,22.50
2023-12-13T09:48:24.635Z,23.60
2023-12-13T09:50:53.524Z,26.15
2023-12-13T09:53:22.426Z,17.00
2023-12-13T09:55:50.091Z,13.75
2023-12-13T09:58:19.755Z,16.67
2023-12-13T10:00:47.220Z,25.92
2023-12-13T10:03:14.655Z,21.40
2023-12-13T10:05:45.063Z,17.45
2023-12-13T10:08:13.237Z,15.32
2023-12-13T10:10:40.975Z,16.88
2023-12-13T10:13:11.100Z,22.38
2023-12-13T10:15:39.995Z,14.38
2023-12-13T10:18:07.517Z,20.95
2023-12-13T10:20:36.527Z,20.85
2023-12-13T10:23:06.480Z,14.13
2023-12-13T10:25:34.597Z,19.40
2023-12-13T10:28:04.933Z,15.10
2023-12-13T10:30:33.637Z,14.68
2023-12-13T10:33:02.476Z,15.13
2023-12-13T10:35:29.940Z,19.48
2023-12-13T10:38:01.355Z,21.65
2023-12-13T10:40:29.054Z,12.85
2023-12-13T10:42:58.033Z,18.20
2023-12-13T10:45:26.157Z,20.77
2023-12-13T10:47:58.061Z,11.75
2023-12-13T10:50:27.868Z,19.08
2023-12-13T10:52:56.600Z,16.80
2023-12-13T10:55:24.812Z,16.05
2023-12-13T10:57:52.644Z,11.15
2023-12-13T11:02:50.202Z,17.73
2023-12-13T11:05:18.178Z,15.88
2023-12-13T11:07:47.332Z,24.15
2023-12-13T11:10:15.233Z,10.50
2023-12-13T11:15:13.189Z,17.40
2023-12-13T11:17:40.761Z,16.13
2023-12-13T11:20:10.949Z,19.33
2023-12-13T11:22:38.570Z,24.10
2023-12-13T11:25:08.125Z,10.43
2023-12-13T11:27:36.198Z,12.60
2023-12-13T11:30:13.213Z,14.35
2023-12-13T11:32:44.470Z,16.93
2023-12-13T11:35:14.374Z,13.90
2023-12-13T11:37:42.057Z,11.57
2023-12-13T11:40:16.952Z,18.20
2023-12-13T11:42:44.444Z,9.30
2023-12-13T11:45:12.361Z,18.55
2023-12-13T11:47:40.137Z,11.23
2023-12-13T11:52:37.810Z,12.95
2023-12-13T11:55:07.710Z,8.23
2023-12-13T11:57:36.685Z,14.77
2023-12-13T12:00:05.948Z,9.43
2023-12-13T12:02:40.628Z,8.82
2023-12-13T12:07:37.265Z,15.30
2023-12-13T12:10:05.210Z,14.13
2023-12-13T12:12:32.617Z,10.73
2023-12-13T12:15:01.928Z,10.48
2023-12-13T12:17:29.422Z,12.07
2023-12-13T12:20:00.513Z,11.15
2023-12-13T12:22:29.024Z,16.05
2023-12-13T12:24:56.590Z,6.35
2023-12-13T12:27:24.883Z,10.52
2023-12-13T12:29:53.060Z,11.05
2023-12-13T12:32:22.485Z,8.27
2023-12-13T12:34:50.310Z,11.43
2023-12-13T12:39:45.580Z,9.85
2023-12-13T12:42:13.502Z,8.48
2023-12-13T12:47:08.244Z,10.98
2023-12-13T12:49:37.173Z,6.78
2023-12-13T12:52:05.038Z,9.15
2023-12-13T12:56:59.698Z,8.50
2023-12-13T12:59:27.304Z,11.80
2023-12-13T13:01:55.017Z,13.98
2023-12-13T13:04:22.544Z,7.47
2023-12-13T13:06:51.340Z,8.75
2023-12-13T13:09:18.727Z,7.68
2023-12-13T13:11:46.326Z,16.38
2023-12-13T13:14:13.853Z,11.93
2023-12-13T13:16:41.314Z,21.13
2023-12-13T13:19:08.924Z,7.65
2023-12-13T13:21:36.661Z,10.93
2023-12-13T13:24:08.697Z,6.70
2023-12-13T13:26:37.857Z,8.57
2023-12-13T13:29:07.213Z,4.72
2023-12-13T13:31:35.442Z,6.35
2023-12-13T13:34:04.377Z,8.57
2023-12-13T13:36:32.303Z,6.88
2023-12-13T13:39:00.061Z,7.10
2023-12-13T13:41:30.036Z,4.43
2023-12-13T13:43:58.748Z,5.20
2023-12-13T13:46:26.423Z,6.07
2023-12-13T13:48:58.873Z,7.00
2023-12-13T13:51:28.462Z,6.10
2023-12-13T13:53:55.895Z,5.55
2023-12-13T13:56:27.362Z,7.22
2023-12-13T13:59:02.447Z,5.32
2023-12-13T14:01:30.139Z,8.00
2023-12-13T14:04:00.072Z,6.95
2023-12-13T14:06:28.092Z,3.95
2023-12-13T14:08:55.530Z,4.70
2023-12-13T14:11:22.960Z,7.75
2023-12-13T14:13:51.353Z,8.45
2023-12-13T14:16:20.433Z,4.72
2023-12-13T14:18:47.999Z,9.63
2023-12-13T14:21:15.519Z,5.47
2023-12-13T14:23:43.036Z,5.65
2023-12-13T14:26:10.551Z,5.50
2023-12-13T14:28:38.732Z,6.95
2023-12-13T14:31:07.732Z,5.75
2023-12-13T14:33:36.730Z,8.43
2023-12-13T14:36:04.298Z,8.57
2023-12-13T14:38:32.704Z,5.15
2023-12-13T14:41:00.131Z,3.75
2023-12-13T14:43:27.663Z,8.20
2023-12-13T14:45:55.086Z,8.90
2023-12-13T14:48:22.630Z,7.50
2023-12-13T14:50:51.477Z,7.90
2023-12-13T14:53:18.985Z,5.75
2023-12-13T14:55:47.123Z,5.38
2023-12-13T14:58:14.939Z,3.78
2023-12-13T15:03:10.351Z,14.10
2023-12-13T15:05:37.959Z,9.25
2023-12-13T15:08:09.137Z,5.03
2023-12-13T15:10:36.774Z,7.65
2023-12-13T15:13:08.648Z,5.82
2023-12-13T15:15:36.396Z,7.43
2023-12-13T15:18:04.028Z,11.55
2023-12-13T15:20:33.058Z,5.93
2023-12-13T15:23:00.632Z,11.73
2023-12-13T15:25:29.605Z,11.77
2023-12-13T15:27:57.705Z,9.98
2023-12-13T15:30:28.351Z,7.95
2023-12-13T15:32:56.110Z,8.18
2023-12-13T15:35:23.564Z,9.40
2023-12-13T15:37:51.018Z,20.98
2023-12-13T15:40:18.515Z,6.78
2023-12-13T15:42:47.548Z,11.00
2023-12-13T15:45:15.046Z,6.55
2023-12-13T15:47:42.597Z,11.10
2023-12-13T15:50:10.499Z,12.18
2023-12-13T15:55:07.276Z,5.65
2023-12-13T15:57:35.130Z,11.00
2023-12-13T16:00:05.146Z,14.93
2023-12-13T16:02:39.905Z,11.95
2023-12-13T16:05:09.638Z,7.63
2023-12-13T16:07:39.570Z,7.20
2023-12-13T16:10:07.731Z,9.65
2023-12-13T16:12:35.513Z,10.02
2023-12-13T16:15:04.953Z,9.07
2023-12-13T16:17:32.665Z,8.23
2023-12-13T16:22:29.405Z,10.23
2023-12-13T16:24:58.510Z,8.32
2023-12-13T16:27:26.168Z,13.45
2023-12-13T16:29:53.723Z,10.00
2023-12-13T16:32:22.515Z,18.88
2023-12-13T16:34:50.875Z,12.48
2023-12-13T16:37:18.816Z,22.25
2023-12-13T16:42:15.233Z,15.90
2023-12-13T16:44:42.827Z,19.17
2023-12-13T16:47:11.172Z,12.68
2023-12-13T16:49:40.059Z,22.17
2023-12-13T16:52:07.605Z,14.93
2023-12-13T16:54:35.031Z,19.08
2023-12-13T16:57:02.540Z,16.40
2023-12-13T16:59:30.240Z,17.92
2023-12-13T17:01:57.679Z,16.77
2023-12-13T17:04:25.201Z,15.32
2023-12-13T17:06:54.003Z,17.23
2023-12-13T17:09:21.648Z,23.67
2023-12-13T17:11:49.171Z,18.67
2023-12-13T17:14:16.855Z,22.08
2023-12-13T17:16:44.878Z,28.63
2023-12-13T17:19:12.397Z,32.47
2023-12-13T17:21:42.354Z,26.88
2023-12-13T17:24:11.506Z,25.98
2023-12-13T17:26:39.211Z,23.05
2023-12-13T17:29:06.839Z,31.05
2023-12-13T17:31:34.356Z,24.25
2023-12-13T17:34:01.920Z,35.38
2023-12-13T17:36:29.456Z,32.50
2023-12-13T17:38:56.980Z,28.67
2023-12-13T17:41:25.729Z,21.52
2023-12-13T17:43:57.139Z,29.90
2023-12-13T17:46:24.707Z,34.88
2023-12-13T17:48:52.224Z,34.97
2023-12-13T17:51:19.733Z,33.55
2023-12-13T17:53:47.151Z,35.58
2023-12-13T17:56:16.560Z,38.15
2023-12-13T17:58:46.933Z,26.15
2023-12-13T18:01:14.962Z,38.03
2023-12-13T18:03:42.771Z,40.28
2023-12-13T18:06:10.364Z,45.13
2023-12-13T18:08:38.711Z,43.00
2023-12-13T18:11:06.436Z,42.80
2023-12-13T18:13:33.977Z,50.15
2023-12-13T18:16:03.096Z,47.22
2023-12-13T18:18:30.690Z,50.47
2023-12-13T18:21:00.626Z,34.70
2023-12-13T18:23:28.115Z,56.47
2023-12-13T18:25:57.591Z,39.95
2023-12-13T18:28:25.587Z,34.17
2023-12-13T18:33:21.826Z,54.38
2023-12-13T18:35:52.182Z,44.38
2023-12-13T18:38:19.688Z,59.63
2023-12-13T18:40:47.980Z,46.75
2023-12-13T18:43:15.456Z,43.33
2023-12-13T18:45:42.859Z,42.35
2023-12-13T18:48:10.377Z,37.25
2023-12-13T18:50:39.178Z,62.95
2023-12-13T18:53:07.107Z,42.78
2023-12-13T18:58:02.073Z,49.33
2023-12-13T19:00:30.265Z,50.28
2023-12-13T19:02:57.831Z,73.75
2023-12-13T19:05:25.628Z,63.95
2023-12-13T19:10:22.272Z,67.60
2023-12-13T19:12:49.697Z,53.33
2023-12-13T19:15:17.257Z,70.00
2023-12-13T19:17:44.776Z,58.30
2023-12-13T19:20:12.890Z,65.00
2023-12-13T19:22:43.607Z,80.70
2023-12-13T19:25:11.202Z,69.53
2023-12-13T19:27:40.079Z,69.00
2023-12-13T19:30:08.066Z,54.67
2023-12-13T19:32:35.579Z,38.53
2023-12-13T19:35:03.178Z,56.90
2023-12-13T19:37:30.820Z,85.03
2023-12-13T19:39:58.352Z,56.75
2023-12-13T19:42:25.852Z,46.83
2023-12-13T19:44:54.688Z,55.25
2023-12-13T19:47:25.035Z,53.85
2023-12-13T19:49:54.435Z,45.30
2023-12-13T19:52:22.088Z,71.25
2023-12-13T19:54:49.559Z,66.97
2023-12-13T19:57:17.130Z,60.33
2023-12-13T19:59:44.596Z,39.80
2023-12-13T20:02:13.572Z,52.40
2023-12-13T20:04:41.626Z,58.33
2023-12-13T20:07:09.213Z,47.92
2023-12-13T20:09:36.981Z,64.30
2023-12-13T20:12:05.110Z,81.82
2023-12-13T20:14:32.833Z,48.92
2023-12-13T20:17:00.292Z,60.90
2023-12-13T20:19:29.082Z,85.97
2023-12-13T20:21:56.501Z,55.70
2023-12-13T20:24:24.151Z,45.08
2023-12-13T20:26:51.586Z,47.25
2023-12-13T20:29:19.032Z,55.70
2023-12-13T20:31:46.770Z,66.85
2023-12-13T20:36:43.153Z,62.67
2023-12-13T20:39:10.546Z,50.22
2023-12-13T20:41:37.988Z,51.65
2023-12-13T20:44:05.718Z,59.53
2023-12-13T20:49:03.483Z,61.22
2023-12-13T20:51:30.949Z,61.17
2023-12-13T20:53:59.803Z,55.92
2023-12-13T20:56:29.321Z,68.22
2023-12-13T20:58:56.784Z,61.03
2023-12-13T21:01:24.261Z,64.88
2023-12-13T21:03:51.842Z,62.50
2023-12-13T21:06:19.412Z,80.80
2023-12-13T21:08:48.386Z,49.28
2023-12-13T21:11:17.246Z,44.90
2023-12-13T21:13:44.813Z,52.67
2023-12-13T21:16:13.376Z,89.72
2023-12-13T21:18:40.982Z,58.45
2023-12-13T21:21:08.465Z,68.10
2023-12-13T21:23:36.054Z,57.85
2023-12-13T21:26:03.717Z,76.15
2023-12-13T21:28:34.422Z,57.22
2023-12-13T21:31:02.192Z,63.45
2023-12-13T21:33:29.739Z,65.05
2023-12-13T21:35:57.562Z,60.42
2023-12-13T21:38:24.982Z,75.28
2023-12-13T21:40:52.511Z,75.75
2023-12-13T21:43:20.058Z,63.60
2023-12-13T21:45:48.795Z,63.85
2023-12-13T21:48:16.373Z,51.92
2023-12-13T21:50:44.398Z,66.32
2023-12-13T21:53:11.901Z,65.40
2023-12-13T21:55:39.436Z,64.30
2023-12-13T21:58:06.919Z,56.20
2023-12-13T22:00:34.366Z,70.68
2023-12-13T22:03:03.230Z,67.03
2023-12-13T22:05:30.753Z,72.22
2023-12-13T22:07:58.528Z,58.85
2023-12-13T22:12:55.332Z,80.22
2023-12-13T22:15:22.756Z,64.35
2023-12-13T22:17:54.722Z,69.00
2023-12-13T22:20:24.376Z,76.38
2023-12-13T22:22:52.513Z,67.60
2023-12-13T22:25:20.079Z,70.10
2023-12-13T22:27:47.507Z,76.70
2023-12-13T22:30:15.234Z,71.35
2023-12-13T22:32:43.058Z,73.60
2023-12-13T22:37:41.384Z,69.28
2023-12-13T22:40:09.802Z,69.28
2023-12-13T22:42:37.501Z,45.97
2023-12-13T22:45:05.357Z,51.13
2023-12-13T22:47:32.845Z,40.45
2023-12-13T22:50:00.414Z,39.78
2023-12-13T22:52:28.127Z,51.55
2023-12-13T22:54:57.120Z,43.70
2023-12-13T22:57:24.549Z,41.65
2023-12-13T22:59:51.952Z,46.28
2023-12-13T23:02:19.446Z,40.10
2023-12-13T23:04:47.081Z,35.30
2023-12-13T23:07:14.539Z,34.92
2023-12-13T23:09:42.075Z,40.78
2023-12-13T23:12:11.309Z,34.42
2023-12-13T23:14:38.819Z,33.78
2023-12-13T23:17:06.324Z,30.65
2023-12-13T23:19:33.867Z,30.70
2023-12-13T23:22:01.405Z,34.17
2023-12-13T23:24:28.957Z,41.35
2023-12-13T23:26:56.441Z,26.55
2023-12-13T23:29:25.237Z,25.42
2023-12-13T23:31:52.729Z,32.38
2023-12-13T23:34:20.227Z,34.28
2023-12-13T23:36:47.806Z,31.20
2023-12-13T23:39:15.281Z,27.70
2023-12-13T23:41:42.702Z,26.55
2023-12-13T23:44:10.301Z,27.60
2023-12-13T23:46:39.592Z,32.78
2023-12-13T23:49:06.149Z,29.95
2023-12-13T23:51:33.791Z,30.25
2023-12-13T23:54:01.273Z,41.97
2023-12-13T23:56:29.786Z,36.42
2023-12-13T23:58:57.328Z,36.35
